Big Bear Station Historical Data
Daily Summary for January 26, 2017 Units:  English    Metric   Both
« Previous Day
Next Day »
Daily Weekly Monthly Yearly Custom
  High: Low: Average:
Temperature: 38.1 °F 7.3 °F 17.8 °F
Dew Point: 26.9 °F 5.7 °F 13.8 °F
Humidity: 95 % 49 % 86 %
Wind Speed: 4.7 mph 0.0 mph 0.5 mph
Wind Gust: -999.0 mph - -
Wind:- - South
Pressure: 30.27 in 30.19 in -
Precipitation: 0.06 in    
Historical Graphs
 
 
Tabular Data for January 26, 2017
Time Temperature Dew Point Pressure Wind Wind Speed Wind Gust Humidity Rainfall Rate (Hourly)
00:06 11.1 °F 9.5 °F 30.20 in Calm   -999.0 mph 93 % 0 in
00:21 10.9 °F 9.5 °F 30.20 in Calm   -999.0 mph 94 % 0 in
00:36 10.9 °F 9.5 °F 30.19 in Calm   -999.0 mph 94 % 0 in
00:52 10.8 °F 9.7 °F 30.19 in Calm   -999.0 mph 95 % 0 in
01:07 10.4 °F 9.0 °F 30.20 in Calm   -999.0 mph 94 % 0 in
01:22 10.4 °F 9.0 °F 30.20 in Calm   -999.0 mph 94 % 0 in
01:37 9.9 °F 8.5 °F 30.20 in Calm   -999.0 mph 94 % 0 in
01:53 10.0 °F 8.6 °F 30.20 in Calm   -999.0 mph 94 % 0 in
02:08 9.9 °F 8.5 °F 30.20 in Calm   -999.0 mph 94 % 0 in
02:23 9.9 °F 8.8 °F 30.20 in Calm   -999.0 mph 95 % 0 in
02:38 9.7 °F 8.6 °F 30.20 in SSE 2.2 mph -999.0 mph 95 % 0 in
02:53 9.7 °F 8.3 °F 30.19 in Calm   -999.0 mph 94 % 0 in
03:09 9.1 °F 7.7 °F 30.19 in Calm   -999.0 mph 94 % 0 in
03:24 9.0 °F 7.6 °F 30.19 in Calm   -999.0 mph 94 % 0 in
03:39 9.1 °F 7.7 °F 30.19 in Calm   -999.0 mph 94 % 0 in
03:54 8.8 °F 7.4 °F 30.19 in Calm   -999.0 mph 94 % 0 in
04:09 8.8 °F 7.4 °F 30.19 in Calm   -999.0 mph 94 % 0 in
04:25 8.6 °F 7.2 °F 30.19 in Calm   -999.0 mph 94 % 0 in
04:40 8.6 °F 7.2 °F 30.19 in South 2.7 mph -999.0 mph 94 % 0 in
04:55 8.1 °F 6.5 °F 30.19 in Calm   -999.0 mph 93 % 0 in
05:10 8.1 °F 6.7 °F 30.19 in Calm   -999.0 mph 94 % 0 in
05:25 7.9 °F 6.5 °F 30.19 in Calm   -999.0 mph 94 % 0 in
05:41 8.1 °F 6.7 °F 30.20 in Calm   -999.0 mph 94 % 0 in
05:56 7.7 °F 6.3 °F 30.20 in Calm   -999.0 mph 94 % 0 in
06:11 7.9 °F 6.5 °F 30.21 in Calm   -999.0 mph 94 % 0 in
06:26 7.7 °F 6.3 °F 30.21 in Calm   -999.0 mph 94 % 0 in
06:41 7.3 °F 5.7 °F 30.21 in Calm   -999.0 mph 93 % 0 in
06:57 7.7 °F 6.1 °F 30.21 in Calm   -999.0 mph 93 % 0 in
07:12 7.5 °F 5.9 °F 30.21 in Calm   -999.0 mph 93 % 0 in
07:27 7.7 °F 6.1 °F 30.22 in Calm   -999.0 mph 93 % 0 in
07:42 7.7 °F 6.1 °F 30.23 in Calm   -999.0 mph 93 % 0 in
07:58 8.1 °F 6.5 °F 30.23 in Calm   -999.0 mph 93 % 0 in
08:13 9.7 °F 8.3 °F 30.23 in Calm   -999.0 mph 94 % 0 in
08:28 10.8 °F 9.4 °F 30.23 in Calm   -999.0 mph 94 % 0 in
08:43 11.7 °F 10.3 °F 30.23 in Calm   -999.0 mph 94 % 0 in
08:58 12.7 °F 11.1 °F 30.23 in Calm   -999.0 mph 93 % 0 in
09:14 14.0 °F 12.4 °F 30.23 in Calm   -999.0 mph 93 % 0 in
09:29 15.8 °F 14.4 °F 30.23 in Calm   -999.0 mph 94 % 0 in
09:44 16.9 °F 15.2 °F 30.23 in Calm   -999.0 mph 93 % 0 in
09:59 19.0 °F 17.3 °F 30.23 in Calm   -999.0 mph 93 % 0 in
10:15 21.0 °F 19.3 °F 30.23 in Calm   -999.0 mph 93 % 0 in
10:30 23.4 °F 20.4 °F 30.23 in Calm   -999.0 mph 88 % 0 in
10:45 26.1 °F 21.4 °F 30.22 in NNW 1.7 mph -999.0 mph 82 % 0 in
11:01 26.6 °F 23.0 °F 30.22 in NW 2.2 mph -999.0 mph 86 % 0 in
11:16 30.4 °F 22.8 °F 30.23 in Calm   -999.0 mph 73 % 0 in
11:31 31.3 °F 23.3 °F 30.21 in Calm   -999.0 mph 72 % 0 in
11:46 32.2 °F 26.1 °F 30.21 in Calm   -999.0 mph 78 % 0 in
12:01 34.5 °F 26.7 °F 30.20 in Calm   -999.0 mph 73 % 0 in
12:17 36.3 °F 25.7 °F 30.20 in ESE 1.7 mph -999.0 mph 65 % 0 in
12:32 36.5 °F 26.9 °F 30.19 in NNW 1.7 mph -999.0 mph 68 % 0 in
12:48 38.1 °F 23.8 °F 30.19 in Calm   -999.0 mph 56 % 0 in
13:03 38.1 °F 22.0 °F 30.19 in West 2.7 mph -999.0 mph 52 % 0 in
13:18 35.1 °F 23.8 °F 30.19 in ESE 4.7 mph -999.0 mph 63 % 0 in
13:34 35.4 °F 21.3 °F 30.19 in WNW 2.2 mph -999.0 mph 56 % 0 in
13:49 35.1 °F 23.0 °F 30.19 in SSE 3.2 mph -999.0 mph 61 % 0 in
14:04 34.0 °F 20.8 °F 30.19 in NE 2.2 mph -999.0 mph 58 % 0 in
14:52 34.3 °F 17.1 °F 30.20 in Calm   -999.0 mph 49 % 0 in
15:07 32.5 °F 19.4 °F 30.20 in Calm   -999.0 mph 58 % 0 in
15:22 30.7 °F 18.8 °F 30.20 in Calm   -999.0 mph 61 % 0 in
16:08 29.8 °F 18.4 °F 30.21 in Calm   -999.0 mph 62 % 0 in
16:23 28.4 °F 16.7 °F 30.21 in ESE 1.1 mph -999.0 mph 61 % 0 in
16:39 27.7 °F 20.2 °F 30.21 in Calm   -999.0 mph 73 % 0 in
16:54 25.9 °F 18.8 °F 30.22 in Calm   -999.0 mph 74 % 0 in
17:09 24.4 °F 18.5 °F 30.22 in Calm   -999.0 mph 78 % 0 in
17:24 23.4 °F 18.4 °F 30.22 in Calm   -999.0 mph 81 % 0 in
17:39 22.1 °F 18.3 °F 30.22 in Calm   -999.0 mph 85 % 0 in
17:55 21.0 °F 17.7 °F 30.22 in Calm   -999.0 mph 87 % 0 in
18:10 20.1 °F 17.1 °F 30.22 in Calm   -999.0 mph 88 % 0 in
18:25 19.4 °F 16.7 °F 30.23 in Calm   -999.0 mph 89 % 0 in
18:40 18.9 °F 16.2 °F 30.23 in Calm   -999.0 mph 89 % 0 in
18:55 19.0 °F 16.3 °F 30.24 in Calm   -999.0 mph 89 % 0 in
19:26 17.8 °F 15.4 °F 30.24 in Calm   -999.0 mph 90 % 0 in
19:41 17.1 °F 14.9 °F 30.24 in Calm   -999.0 mph 91 % 0 in
19:56 17.1 °F 14.4 °F 30.25 in Calm   -999.0 mph 89 % 0 in
20:12 16.7 °F 14.3 °F 30.25 in Calm   -999.0 mph 90 % 0 in
20:27 16.2 °F 14.0 °F 30.25 in Calm   -999.0 mph 91 % 0 in
20:42 15.4 °F 13.2 °F 30.26 in Calm   -999.0 mph 91 % 0 in
20:57 15.1 °F 12.9 °F 30.26 in Calm   -999.0 mph 91 % 0 in
21:12 15.3 °F 13.1 °F 30.26 in Calm   -999.0 mph 91 % 0 in
21:28 14.7 °F 12.8 °F 30.26 in Calm   -999.0 mph 92 % 0 in
21:43 14.4 °F 12.5 °F 30.26 in Calm   -999.0 mph 92 % 0 in
21:58 15.4 °F 13.2 °F 30.27 in Calm   -999.0 mph 91 % 0 in
22:29 15.4 °F 13.2 °F 30.27 in South 2.2 mph -999.0 mph 91 % 0 in
22:59 16.0 °F 13.8 °F 30.27 in South 3.2 mph -999.0 mph 91 % 0 in
23:15 16.3 °F 14.1 °F 30.27 in SSE 2.2 mph -999.0 mph 91 % 0 in
23:30 16.3 °F 14.1 °F 30.27 in ESE 2.7 mph -999.0 mph 91 % 0 in
23:45 17.1 °F 14.9 °F 30.27 in South 2.7 mph -999.0 mph 91 % 0 in
Big Bear CA Weather
Compliments of Weather Underground - 1.5 mb